Time;durP1;ratioP1;P1;durP2;ratioP2;P2;SDS_P1;SDS_P2;PMS_P1;PMS_P2;Temp;Humidity;BMP_temperature;BMP_pressure;BME280_temperature;BME280_humidity;BME280_pressure;Samples;Min_cycle;Max_cycle;Signal;HPM_P1;HPM_P2
2023/03/08 00:00:58;;;;;;;15.18;10.23;;;;;;;;;;10070700;28;20450;-66
2023/03/08 00:05:52;;;;;;;16.40;10.80;;;;;;;;;;10072661;28;20057;-66
2023/03/08 00:10:45;;;;;;;17.85;11.55;;;;;;;;;;10069891;28;20418;-66
2023/03/08 00:15:40;;;;;;;18.25;12.80;;;;;;;;;;10069693;28;20054;-65
2023/03/08 00:20:33;;;;;;;18.83;13.02;;;;;;;;;;10069911;28;20107;-65
2023/03/08 00:25:26;;;;;;;20.70;13.18;;;;;;;;;;10069336;28;20045;-65
2023/03/08 00:30:19;;;;;;;20.77;12.93;;;;;;;;;;10069476;28;20041;-65
2023/03/08 00:35:13;;;;;;;14.38;11.55;;;;;;;;;;10067684;28;20045;-65
2023/03/08 00:40:11;;;;;;;17.60;12.50;;;;;;;;;;10067862;28;20079;-65
2023/03/08 00:45:04;;;;;;;16.75;11.60;;;;;;;;;;10066854;28;20080;-65
2023/03/08 00:49:57;;;;;;;17.02;11.85;;;;;;;;;;10068134;28;20483;-64
2023/03/08 00:54:50;;;;;;;16.58;9.93;;;;;;;;;;10067572;28;20476;-65
2023/03/08 00:59:43;;;;;;;17.48;12.02;;;;;;;;;;10068313;28;20045;-65
2023/03/08 01:04:38;;;;;;;17.23;10.35;;;;;;;;;;10066732;28;20045;-65
2023/03/08 01:09:31;;;;;;;16.13;10.23;;;;;;;;;;10068483;28;20159;-65
2023/03/08 01:14:25;;;;;;;14.82;11.77;;;;;;;;;;10067868;28;20042;-65
2023/03/08 01:19:18;;;;;;;22.70;12.52;;;;;;;;;;10067183;28;20412;-65
2023/03/08 01:24:11;;;;;;;12.52;10.52;;;;;;;;;;10061909;28;20091;-65
2023/03/08 01:29:05;;;;;;;20.08;12.25;;;;;;;;;;10067738;28;20448;-65
2023/03/08 01:33:59;;;;;;;17.73;11.32;;;;;;;;;;10074975;28;20515;-65
2023/03/08 01:38:52;;;;;;;13.18;10.65;;;;;;;;;;10097510;28;20045;-65
2023/03/08 01:43:45;;;;;;;18.10;13.15;;;;;;;;;;10065387;28;20053;-65
2023/03/08 01:48:52;;;;;;;27.50;12.80;;;;;;;;;;10048809;28;20054;-66
2023/03/08 01:53:46;;;;;;;17.77;11.02;;;;;;;;;;10043380;28;20046;-65
2023/03/08 01:58:39;;;;;;;15.32;10.43;;;;;;;;;;10066233;28;20037;-66
2023/03/08 02:03:32;;;;;;;18.92;11.30;;;;;;;;;;10064039;28;20049;-66
2023/03/08 02:08:27;;;;;;;16.17;10.15;;;;;;;;;;10065204;28;20049;-66
2023/03/08 02:13:20;;;;;;;13.80;10.43;;;;;;;;;;10066052;28;20055;-65
2023/03/08 02:18:13;;;;;;;11.90;9.68;;;;;;;;;;10048650;28;20069;-66
2023/03/08 02:23:16;;;;;;;10.65;7.68;;;;;;;;;;10063936;28;20136;-66
2023/03/08 02:28:09;;;;;;;12.93;8.43;;;;;;;;;;10055549;28;20053;-65
2023/03/08 02:33:02;;;;;;;10.30;8.25;;;;;;;;;;10064264;28;20046;-66
2023/03/08 02:37:54;;;;;;;11.27;7.63;;;;;;;;;;10063649;28;20057;-65
2023/03/08 02:42:48;;;;;;;19.88;8.40;;;;;;;;;;10048237;28;20049;-66
2023/03/08 02:47:44;;;;;;;14.38;7.88;;;;;;;;;;10064389;28;20041;-66
2023/03/08 02:52:39;;;;;;;9.80;6.80;;;;;;;;;;10063517;28;20049;-66
2023/03/08 02:57:33;;;;;;;8.48;6.20;;;;;;;;;;10065179;28;20096;-65
2023/03/08 03:02:28;;;;;;;15.20;7.15;;;;;;;;;;10063804;28;20052;-65
2023/03/08 03:07:22;;;;;;;9.65;6.97;;;;;;;;;;10064618;28;20057;-65
2023/03/08 03:12:16;;;;;;;15.13;7.88;;;;;;;;;;10070473;28;20064;-65
2023/03/08 03:17:09;;;;;;;8.82;6.47;;;;;;;;;;10070769;28;20084;-65
2023/03/08 03:22:03;;;;;;;8.93;6.28;;;;;;;;;;10070370;28;20049;-65
2023/03/08 03:26:57;;;;;;;6.25;5.40;;;;;;;;;;10071411;28;20061;-65
2023/03/08 03:31:54;;;;;;;9.40;6.35;;;;;;;;;;10070939;28;20073;-65
2023/03/08 03:36:47;;;;;;;7.85;6.28;;;;;;;;;;10070185;28;20048;-66
2023/03/08 03:41:41;;;;;;;8.25;5.90;;;;;;;;;;10069990;28;20099;-65
2023/03/08 03:46:36;;;;;;;6.65;5.75;;;;;;;;;;10070713;28;20049;-65
2023/03/08 03:51:32;;;;;;;8.27;6.03;;;;;;;;;;10069578;28;20068;-65
2023/03/08 03:56:40;;;;;;;10.15;6.38;;;;;;;;;;10069929;28;20456;-65
2023/03/08 04:01:34;;;;;;;6.70;4.75;;;;;;;;;;10069434;28;20041;-65
2023/03/08 04:06:36;;;;;;;8.93;4.57;;;;;;;;;;10074249;28;20053;-65
2023/03/08 04:11:37;;;;;;;6.80;4.40;;;;;;;;;;10072108;28;20103;-65
2023/03/08 04:16:35;;;;;;;7.55;5.32;;;;;;;;;;10068848;28;20049;-65
2023/03/08 04:21:33;;;;;;;7.20;5.25;;;;;;;;;;10068918;28;20056;-65
2023/03/08 04:26:27;;;;;;;12.25;5.57;;;;;;;;;;10068433;28;20405;-65
2023/03/08 04:31:27;;;;;;;7.68;5.13;;;;;;;;;;10069522;28;20061;-64
2023/03/08 04:36:23;;;;;;;10.25;6.07;;;;;;;;;;10065746;28;20411;-64
2023/03/08 04:41:21;;;;;;;6.10;4.82;;;;;;;;;;10097347;28;20049;-64
2023/03/08 04:46:31;;;;;;;6.93;4.07;;;;;;;;;;10067227;28;20041;-64
2023/03/08 04:51:26;;;;;;;10.00;5.28;;;;;;;;;;10067946;28;20049;-65
2023/03/08 04:56:22;;;;;;;7.97;5.40;;;;;;;;;;10067164;28;20061;-65
2023/03/08 05:01:18;;;;;;;9.27;5.95;;;;;;;;;;10068690;28;20076;-65
2023/03/08 05:06:13;;;;;;;8.88;6.35;;;;;;;;;;10072718;28;20123;-65
2023/03/08 05:11:05;;;;;;;7.85;6.03;;;;;;;;;;10067080;28;20099;-65
2023/03/08 05:16:03;;;;;;;8.35;5.68;;;;;;;;;;10067551;28;20063;-65
2023/03/08 05:20:59;;;;;;;10.48;6.05;;;;;;;;;;10067758;28;20049;-65
2023/03/08 05:25:54;;;;;;;9.95;6.78;;;;;;;;;;10066034;28;20103;-65
2023/03/08 05:30:49;;;;;;;7.03;5.47;;;;;;;;;;10065756;28;20099;-65
2023/03/08 05:35:42;;;;;;;8.68;6.22;;;;;;;;;;10066165;28;20045;-64
2023/03/08 05:40:37;;;;;;;10.23;6.47;;;;;;;;;;10059503;28;20436;-65
2023/03/08 05:45:32;;;;;;;6.95;6.13;;;;;;;;;;10092890;28;20155;-65
2023/03/08 05:50:25;;;;;;;8.63;6.90;;;;;;;;;;10061422;28;20089;-65
2023/03/08 05:55:17;;;;;;;7.53;5.15;;;;;;;;;;10058510;28;20038;-67
2023/03/08 06:00:13;;;;;;;9.02;5.88;;;;;;;;;;10052500;28;20053;-65
2023/03/08 06:05:14;;;;;;;15.35;9.57;;;;;;;;;;10062860;28;20045;-65
2023/03/08 06:10:11;;;;;;;12.75;8.60;;;;;;;;;;10063813;28;20048;-64
2023/03/08 06:15:06;;;;;;;12.55;6.72;;;;;;;;;;10063962;28;20049;-63
2023/03/08 06:20:01;;;;;;;15.25;8.07;;;;;;;;;;10063623;28;20463;-63
2023/03/08 06:24:58;;;;;;;8.52;6.15;;;;;;;;;;10074235;28;20045;-64
2023/03/08 06:29:57;;;;;;;15.40;6.32;;;;;;;;;;10064728;28;20079;-64
2023/03/08 06:34:51;;;;;;;17.98;10.32;;;;;;;;;;10065163;28;20064;-64
2023/03/08 06:39:45;;;;;;;8.18;7.03;;;;;;;;;;10058549;28;20407;-64
2023/03/08 06:44:38;;;;;;;13.20;7.35;;;;;;;;;;10066667;28;20076;-64
2023/03/08 06:49:34;;;;;;;14.07;8.15;;;;;;;;;;10069720;28;20045;-64
2023/03/08 06:54:27;;;;;;;10.40;6.95;;;;;;;;;;10073071;28;20049;-64
2023/03/08 06:59:21;;;;;;;10.85;6.90;;;;;;;;;;10069901;28;20500;-64
2023/03/08 07:04:17;;;;;;;14.80;9.57;;;;;;;;;;10070953;28;20508;-64
2023/03/08 07:09:10;;;;;;;9.30;8.40;;;;;;;;;;10071755;28;20053;-64
2023/03/08 07:14:03;;;;;;;18.38;11.75;;;;;;;;;;10067505;28;20131;-64
2023/03/08 07:18:56;;;;;;;19.85;12.73;;;;;;;;;;10069977;28;20049;-64
2023/03/08 07:23:51;;;;;;;20.38;9.98;;;;;;;;;;10063908;28;20061;-64
2023/03/08 07:28:47;;;;;;;15.00;10.27;;;;;;;;;;10071155;28;20076;-64
2023/03/08 07:33:41;;;;;;;12.05;8.57;;;;;;;;;;10068099;28;20084;-64
2023/03/08 07:38:34;;;;;;;18.17;9.52;;;;;;;;;;10074535;28;20088;-63
2023/03/08 07:43:28;;;;;;;21.52;10.32;;;;;;;;;;10071743;28;20080;-63
2023/03/08 07:48:44;;;;;;;18.17;12.25;;;;;;;;;;10065193;28;20227;-69
2023/03/08 07:53:37;;;;;;;18.92;10.02;;;;;;;;;;10062470;28;20045;-67
2023/03/08 07:58:30;;;;;;;16.38;8.48;;;;;;;;;;10066302;28;20531;-66
2023/03/08 08:03:24;;;;;;;19.67;9.45;;;;;;;;;;10056121;28;20046;-69
2023/03/08 08:08:18;;;;;;;10.13;4.90;;;;;;;;;;10052761;28;20050;-69
2023/03/08 08:13:11;;;;;;;5.97;4.65;;;;;;;;;;10057010;28;20500;-69
2023/03/08 08:18:05;;;;;;;8.38;5.15;;;;;;;;;;10056020;28;20413;-70
2023/03/08 08:23:00;;;;;;;11.57;5.60;;;;;;;;;;10060671;28;20124;-70
2023/03/08 08:27:54;;;;;;;6.80;5.32;;;;;;;;;;10053352;28;20088;-70
2023/03/08 08:32:47;;;;;;;9.13;5.60;;;;;;;;;;10057098;28;20046;-71
2023/03/08 08:37:40;;;;;;;9.10;5.13;;;;;;;;;;10056102;28;20076;-68
2023/03/08 08:42:34;;;;;;;9.45;6.82;;;;;;;;;;10055014;28;20140;-70
2023/03/08 08:47:28;;;;;;;13.70;7.15;;;;;;;;;;10059857;28;20084;-69
2023/03/08 08:52:22;;;;;;;11.88;7.60;;;;;;;;;;10051568;28;20049;-69
2023/03/08 08:57:15;;;;;;;12.45;7.40;;;;;;;;;;10060490;28;20057;-70
2023/03/08 09:02:10;;;;;;;12.10;7.68;;;;;;;;;;10052918;28;20508;-72
2023/03/08 09:07:03;;;;;;;8.98;7.60;;;;;;;;;;10058845;28;20056;-68
2023/03/08 09:11:56;;;;;;;16.17;8.75;;;;;;;;;;10068396;28;20456;-69
2023/03/08 09:16:49;;;;;;;14.93;9.57;;;;;;;;;;10067784;28;20080;-69
2023/03/08 09:21:42;;;;;;;11.60;8.88;;;;;;;;;;10067729;28;20421;-68
2023/03/08 09:26:35;;;;;;;18.92;9.32;;;;;;;;;;10067132;28;20041;-68
2023/03/08 09:31:28;;;;;;;16.23;9.35;;;;;;;;;;10063185;28;20051;-68
2023/03/08 09:36:21;;;;;;;27.00;9.82;;;;;;;;;;10071326;28;20410;-67
2023/03/08 09:41:25;;;;;;;19.10;10.25;;;;;;;;;;10065220;28;20045;-68
2023/03/08 09:46:23;;;;;;;12.13;10.82;;;;;;;;;;10066477;28;20056;-68
2023/03/08 09:51:17;;;;;;;13.77;9.32;;;;;;;;;;10065990;28;20057;-68
2023/03/08 09:56:20;;;;;;;15.23;11.07;;;;;;;;;;10065664;28;20045;-68
2023/03/08 10:01:32;;;;;;;15.93;12.82;;;;;;;;;;10049156;28;20087;-68
2023/03/08 10:06:43;;;;;;;15.70;12.10;;;;;;;;;;10064238;28;20111;-68
2023/03/08 10:11:44;;;;;;;14.30;12.05;;;;;;;;;;10063054;28;20050;-68
2023/03/08 10:16:45;;;;;;;13.98;10.15;;;;;;;;;;10061090;28;20049;-68
2023/03/08 10:21:39;;;;;;;22.00;13.55;;;;;;;;;;10064661;28;20049;-68
2023/03/08 10:26:33;;;;;;;15.48;11.90;;;;;;;;;;10063897;28;20080;-68
2023/03/08 10:31:32;;;;;;;13.52;10.65;;;;;;;;;;10062657;28;20057;-68
2023/03/08 10:36:25;;;;;;;22.23;12.80;;;;;;;;;;10053587;28;20054;-68
2023/03/08 10:41:18;;;;;;;19.13;11.95;;;;;;;;;;10065416;28;20449;-68
2023/03/08 10:46:13;;;;;;;15.93;10.98;;;;;;;;;;10057344;28;20045;-67
2023/03/08 10:51:21;;;;;;;14.05;10.25;;;;;;;;;;10065923;28;20061;-67
2023/03/08 10:56:25;;;;;;;12.98;11.40;;;;;;;;;;10063861;28;20046;-67
2023/03/08 11:01:32;;;;;;;16.45;10.80;;;;;;;;;;10063394;28;20049;-66
2023/03/08 11:06:26;;;;;;;13.20;10.90;;;;;;;;;;10054166;28;20060;-66
2023/03/08 11:11:19;;;;;;;14.63;10.30;;;;;;;;;;10055068;28;20054;-67
2023/03/08 11:16:48;;;;;;;15.93;10.38;;;;;;;;;;10061457;28;20465;-66
2023/03/08 11:22:04;;;;;;;12.55;11.25;;;;;;;;;;10064970;28;20485;-66
2023/03/08 11:27:17;;;;;;;13.80;10.95;;;;;;;;;;10064465;28;20459;-66
2023/03/08 11:32:45;;;;;;;13.10;9.40;;;;;;;;;;10069996;28;20053;-66
2023/03/08 11:38:16;;;;;;;11.45;10.23;;;;;;;;;;10065032;28;20057;-66
2023/03/08 11:43:08;;;;;;;15.27;11.07;;;;;;;;;;10071157;28;20041;-66
2023/03/08 11:48:43;;;;;;;13.35;9.57;;;;;;;;;;10063280;28;20164;-66
2023/03/08 11:53:57;;;;;;;12.30;8.82;;;;;;;;;;10051566;28;20055;-66
2023/03/08 11:59:05;;;;;;;9.50;8.43;;;;;;;;;;10063615;28;20057;-66
2023/03/08 12:04:07;;;;;;;19.15;8.95;;;;;;;;;;10070423;28;20076;-66
2023/03/08 12:09:29;;;;;;;17.02;8.88;;;;;;;;;;10059540;28;20045;-66
2023/03/08 12:14:29;;;;;;;11.43;8.75;;;;;;;;;;10068294;28;20156;-66
2023/03/08 12:19:38;;;;;;;12.55;8.60;;;;;;;;;;10093803;28;20389;-66
2023/03/08 12:24:49;;;;;;;13.48;8.38;;;;;;;;;;10070406;28;20063;-66
2023/03/08 12:29:53;;;;;;;20.15;9.05;;;;;;;;;;10070240;28;20049;-66
2023/03/08 12:34:46;;;;;;;14.48;7.63;;;;;;;;;;10061794;28;20053;-66
2023/03/08 12:39:40;;;;;;;16.85;9.52;;;;;;;;;;10065907;28;20080;-65
2023/03/08 12:44:33;;;;;;;8.77;7.88;;;;;;;;;;10068778;28;20063;-63
2023/03/08 12:49:36;;;;;;;12.82;8.65;;;;;;;;;;10061349;28;20053;-67
2023/03/08 12:54:32;;;;;;;14.15;9.55;;;;;;;;;;10066331;28;20057;-65
2023/03/08 12:59:49;;;;;;;17.15;9.75;;;;;;;;;;10067374;28;20432;-64
2023/03/08 13:04:42;;;;;;;10.50;9.50;;;;;;;;;;10064353;28;20053;-65
2023/03/08 13:09:40;;;;;;;17.80;10.95;;;;;;;;;;10067097;28;20122;-64
2023/03/08 13:15:04;;;;;;;13.77;9.90;;;;;;;;;;10064750;28;20051;-64
2023/03/08 13:20:09;;;;;;;13.15;10.73;;;;;;;;;;10055411;28;20056;-64
2023/03/08 13:25:32;;;;;;;15.18;9.63;;;;;;;;;;10088981;28;20041;-64
2023/03/08 13:30:50;;;;;;;14.35;11.68;;;;;;;;;;10062176;28;20063;-64
2023/03/08 13:35:54;;;;;;;18.65;11.93;;;;;;;;;;10063276;28;20477;-64
2023/03/08 13:40:54;;;;;;;11.48;10.07;;;;;;;;;;10063878;28;20052;-65
2023/03/08 13:45:48;;;;;;;14.43;10.50;;;;;;;;;;10066179;28;20607;-64
2023/03/08 13:50:42;;;;;;;13.38;10.88;;;;;;;;;;10063531;28;20111;-64
2023/03/08 13:55:43;;;;;;;15.90;10.10;;;;;;;;;;10063016;28;20077;-65
2023/03/08 14:00:36;;;;;;;12.48;10.00;;;;;;;;;;10063493;28;20062;-65
2023/03/08 14:05:40;;;;;;;12.52;10.30;;;;;;;;;;10062362;28;20594;-65
2023/03/08 14:10:43;;;;;;;14.75;11.10;;;;;;;;;;10061769;28;20053;-64
2023/03/08 14:15:38;;;;;;;15.43;11.35;;;;;;;;;;10060581;28;20053;-64
2023/03/08 14:20:31;;;;;;;20.23;11.90;;;;;;;;;;10062319;28;20071;-64
2023/03/08 14:25:29;;;;;;;11.48;10.18;;;;;;;;;;10062096;28;20057;-65
2023/03/08 14:30:24;;;;;;;16.87;10.63;;;;;;;;;;10061306;28;20053;-64
2023/03/08 14:35:35;;;;;;;13.38;10.38;;;;;;;;;;10056110;28;20054;-64
2023/03/08 14:40:34;;;;;;;11.85;10.63;;;;;;;;;;10057768;28;20664;-64
2023/03/08 14:45:39;;;;;;;;;;;;;;;;;;10061356;28;20046;-64
2023/03/08 14:50:50;;;;;;;14.07;11.25;;;;;;;;;;10047938;28;19987;-64
2023/03/08 14:55:43;;;;;;;22.38;11.52;;;;;;;;;;10060718;28;20084;-65
2023/03/08 15:00:48;;;;;;;11.65;10.32;;;;;;;;;;10060757;28;20065;-63
2023/03/08 15:05:41;;;;;;;15.02;11.80;;;;;;;;;;10055657;28;20696;-63
2023/03/08 15:10:36;;;;;;;15.07;12.55;;;;;;;;;;10069051;28;20037;-65
2023/03/08 15:15:29;;;;;;;15.63;10.52;;;;;;;;;;10068550;28;20455;-65
2023/03/08 15:20:23;;;;;;;14.27;11.73;;;;;;;;;;10068216;28;20473;-63
2023/03/08 15:25:36;;;;;;;17.42;12.40;;;;;;;;;;10074253;28;20053;-64
2023/03/08 15:30:30;;;;;;;16.27;11.52;;;;;;;;;;10068350;28;20064;-64
2023/03/08 15:35:23;;;;;;;16.15;11.73;;;;;;;;;;10068345;28;20057;-64
2023/03/08 15:40:21;;;;;;;13.80;11.38;;;;;;;;;;10069417;28;20057;-64
2023/03/08 15:45:16;;;;;;;8.65;5.80;;;;;;;;;;10069257;28;20057;-64
2023/03/08 15:50:17;;;;;;;9.82;4.82;;;;;;;;;;10066979;28;20107;-64
2023/03/08 15:55:13;;;;;;;10.55;6.88;;;;;;;;;;10066259;28;20140;-65
2023/03/08 16:00:08;;;;;;;4.30;2.63;;;;;;;;;;10052593;28;20061;-64
2023/03/08 16:05:04;;;;;;;9.32;4.47;;;;;;;;;;10060442;28;20148;-63
2023/03/08 16:09:57;;;;;;;15.45;6.93;;;;;;;;;;10054547;28;20125;-62
2023/03/08 16:14:53;;;;;;;4.25;2.72;;;;;;;;;;10065789;28;20508;-63
2023/03/08 16:19:49;;;;;;;6.90;2.60;;;;;;;;;;10066596;28;20061;-63
2023/03/08 16:24:47;;;;;;;4.25;2.90;;;;;;;;;;10066250;28;20072;-62
2023/03/08 16:29:42;;;;;;;5.00;3.55;;;;;;;;;;10065407;28;20053;-62
2023/03/08 16:34:37;;;;;;;5.30;3.28;;;;;;;;;;10065550;28;20412;-63
2023/03/08 16:39:34;;;;;;;7.57;3.67;;;;;;;;;;10065009;28;20053;-62
2023/03/08 16:44:30;;;;;;;9.00;6.75;;;;;;;;;;10066389;28;20060;-62
2023/03/08 16:49:29;;;;;;;24.85;18.25;;;;;;;;;;10064130;28;20061;-62
2023/03/08 16:54:26;;;;;;;;;;;;;;;;;;10066565;28;20508;-61
2023/03/08 16:59:21;;;;;;;2.75;2.17;;;;;;;;;;10065969;28;19921;-62
2023/03/08 17:04:18;;;;;;;9.20;5.13;;;;;;;;;;10066688;28;20045;-62
2023/03/08 17:09:15;;;;;;;8.27;3.25;;;;;;;;;;10066424;28;20060;-62
2023/03/08 17:14:13;;;;;;;7.53;3.88;;;;;;;;;;10066077;28;20048;-63
2023/03/08 17:19:09;;;;;;;6.80;3.85;;;;;;;;;;10065325;28;20073;-61
2023/03/08 17:24:26;;;;;;;4.53;4.05;;;;;;;;;;10067598;28;20053;-62
2023/03/08 17:29:22;;;;;;;6.03;3.50;;;;;;;;;;10065041;28;20049;-63
2023/03/08 17:34:16;;;;;;;3.78;2.40;;;;;;;;;;10066110;28;20111;-61
2023/03/08 17:39:09;;;;;;;7.85;4.10;;;;;;;;;;10066068;28;20057;-61
2023/03/08 17:44:03;;;;;;;2.72;1.52;;;;;;;;;;10066536;28;20041;-61
2023/03/08 17:48:56;;;;;;;7.05;3.08;;;;;;;;;;10066312;28;20045;-63
2023/03/08 17:53:50;;;;;;;5.93;3.30;;;;;;;;;;10066816;28;20056;-62
2023/03/08 17:58:44;;;;;;;12.20;8.18;;;;;;;;;;10066118;28;20045;-62
2023/03/08 18:03:37;;;;;;;3.50;2.40;;;;;;;;;;10066080;28;20120;-61
2023/03/08 18:08:31;;;;;;;8.75;3.45;;;;;;;;;;10062119;28;20132;-63
2023/03/08 18:13:25;;;;;;;4.32;1.95;;;;;;;;;;10071332;28;20049;-62
2023/03/08 18:18:18;;;;;;;4.45;2.65;;;;;;;;;;10060625;28;20852;-65
2023/03/08 18:23:12;;;;;;;10.35;3.88;;;;;;;;;;10061243;28;20098;-65
2023/03/08 18:28:05;;;;;;;5.70;2.85;;;;;;;;;;10058975;28;20077;-64
2023/03/08 18:32:59;;;;;;;2.35;1.25;;;;;;;;;;10058667;28;20556;-65
2023/03/08 18:37:52;;;;;;;3.20;2.03;;;;;;;;;;10048900;28;20392;-65
2023/03/08 18:42:46;;;;;;;3.50;1.63;;;;;;;;;;10050519;28;20081;-65
2023/03/08 18:47:39;;;;;;;3.65;1.55;;;;;;;;;;10043556;28;20077;-65
2023/03/08 18:52:32;;;;;;;7.70;2.33;;;;;;;;;;10054913;28;20518;-64
2023/03/08 18:57:26;;;;;;;6.47;3.30;;;;;;;;;;10050588;28;20103;-64
2023/03/08 19:02:22;;;;;;;4.40;2.60;;;;;;;;;;10052309;28;20057;-65
2023/03/08 19:07:15;;;;;;;6.65;3.80;;;;;;;;;;10055459;28;20077;-65
2023/03/08 19:12:09;;;;;;;4.68;3.08;;;;;;;;;;10049236;28;20064;-64
2023/03/08 19:17:02;;;;;;;5.75;2.58;;;;;;;;;;10051214;28;20049;-62
2023/03/08 19:21:55;;;;;;;5.47;2.38;;;;;;;;;;10059329;28;20063;-64
2023/03/08 19:26:51;;;;;;;3.65;2.28;;;;;;;;;;10055244;28;20049;-64
2023/03/08 19:31:55;;;;;;;3.28;2.08;;;;;;;;;;10056303;28;20404;-64
2023/03/08 19:36:48;;;;;;;4.53;2.40;;;;;;;;;;10048709;28;20037;-63
2023/03/08 19:41:43;;;;;;;6.50;2.20;;;;;;;;;;10042588;28;20747;-66
2023/03/08 19:46:38;;;;;;;9.10;4.75;;;;;;;;;;10048805;28;20049;-64
2023/03/08 19:51:31;;;;;;;12.43;8.90;;;;;;;;;;10059639;28;20058;-64
2023/03/08 19:56:25;;;;;;;22.02;12.80;;;;;;;;;;10056569;28;20041;-64
2023/03/08 20:01:20;;;;;;;18.40;11.50;;;;;;;;;;10064416;28;20393;-65
2023/03/08 20:06:30;;;;;;;18.90;12.63;;;;;;;;;;10059748;28;20052;-64
2023/03/08 20:11:24;;;;;;;22.65;14.35;;;;;;;;;;10070368;28;20041;-64
2023/03/08 20:16:17;;;;;;;25.27;16.00;;;;;;;;;;10062111;28;20099;-64
2023/03/08 20:21:11;;;;;;;19.25;14.75;;;;;;;;;;10048963;28;20409;-64
2023/03/08 20:26:05;;;;;;;25.55;15.10;;;;;;;;;;10048900;28;20057;-64
2023/03/08 20:30:59;;;;;;;22.60;16.52;;;;;;;;;;10061373;28;20053;-64
2023/03/08 20:36:15;;;;;;;22.90;16.30;;;;;;;;;;10051193;28;20045;-64
2023/03/08 20:41:12;;;;;;;27.75;19.75;;;;;;;;;;10062097;28;20120;-65
2023/03/08 20:46:08;;;;;;;29.48;17.88;;;;;;;;;;10060558;28;20111;-65
2023/03/08 20:51:03;;;;;;;28.55;17.38;;;;;;;;;;10059853;28;20564;-64
2023/03/08 20:55:57;;;;;;;30.75;20.25;;;;;;;;;;10066537;28;20556;-64
2023/03/08 21:00:52;;;;;;;47.80;18.30;;;;;;;;;;10067445;28;20076;-65
2023/03/08 21:05:45;;;;;;;25.27;13.18;;;;;;;;;;10061181;28;20132;-64
2023/03/08 21:10:40;;;;;;;22.25;14.05;;;;;;;;;;10057858;28;20050;-64
2023/03/08 21:15:33;;;;;;;21.80;13.13;;;;;;;;;;10051750;28;20049;-64
2023/03/08 21:20:26;;;;;;;21.13;13.73;;;;;;;;;;10049805;28;20045;-63
2023/03/08 21:25:20;;;;;;;18.20;12.95;;;;;;;;;;10046954;28;20099;-66
2023/03/08 21:30:14;;;;;;;18.25;13.75;;;;;;;;;;10057757;28;20067;-63
2023/03/08 21:35:10;;;;;;;23.67;14.63;;;;;;;;;;10055485;28;20064;-65
2023/03/08 21:40:07;;;;;;;21.48;15.90;;;;;;;;;;10056439;28;20083;-66
2023/03/08 21:44:59;;;;;;;22.90;16.23;;;;;;;;;;10060512;28;20492;-66
2023/03/08 21:49:54;;;;;;;18.88;12.88;;;;;;;;;;10050732;28;20061;-65
2023/03/08 21:54:48;;;;;;;14.88;11.85;;;;;;;;;;10060709;28;20053;-64
2023/03/08 21:59:42;;;;;;;21.83;12.70;;;;;;;;;;10051684;28;20053;-64
2023/03/08 22:04:36;;;;;;;22.38;14.40;;;;;;;;;;10057789;28;20049;-65
2023/03/08 22:09:31;;;;;;;20.88;14.00;;;;;;;;;;10049274;28;20037;-65
2023/03/08 22:14:25;;;;;;;19.25;12.95;;;;;;;;;;10057332;28;20060;-66
2023/03/08 22:19:19;;;;;;;14.27;11.10;;;;;;;;;;10048806;28;20060;-67
2023/03/08 22:24:13;;;;;;;17.65;11.63;;;;;;;;;;10052288;28;20099;-66
2023/03/08 22:29:06;;;;;;;19.95;11.70;;;;;;;;;;10059860;28;20128;-65
2023/03/08 22:34:00;;;;;;;16.58;11.55;;;;;;;;;;10063277;28;20124;-65
2023/03/08 22:38:54;;;;;;;15.40;11.45;;;;;;;;;;10064795;28;20042;-65
2023/03/08 22:43:48;;;;;;;12.63;9.82;;;;;;;;;;10065224;28;20057;-65
2023/03/08 22:48:43;;;;;;;17.88;11.02;;;;;;;;;;10071942;28;20052;-65
2023/03/08 22:53:36;;;;;;;18.02;10.70;;;;;;;;;;10064790;28;20052;-65
2023/03/08 22:58:29;;;;;;;15.50;8.45;;;;;;;;;;10065230;28;20054;-65
2023/03/08 23:03:24;;;;;;;11.93;8.18;;;;;;;;;;10065059;28;20054;-65
2023/03/08 23:08:18;;;;;;;13.80;9.18;;;;;;;;;;10064937;28;20073;-66
2023/03/08 23:13:16;;;;;;;18.17;9.27;;;;;;;;;;10064671;28;20060;-65
2023/03/08 23:18:26;;;;;;;;;;;;;;;;;;10065152;28;20144;-65
2023/03/08 23:23:18;;;;;;;16.02;9.52;;;;;;;;;;10063097;28;19929;-65
2023/03/08 23:28:12;;;;;;;14.60;9.88;;;;;;;;;;10069917;28;20535;-65
2023/03/08 23:33:06;;;;;;;11.90;8.80;;;;;;;;;;10072432;28;20045;-65
2023/03/08 23:38:00;;;;;;;17.90;10.75;;;;;;;;;;10072163;28;20061;-65
2023/03/08 23:42:53;;;;;;;13.48;8.75;;;;;;;;;;10072032;28;20037;-65
2023/03/08 23:47:47;;;;;;;13.43;10.13;;;;;;;;;;10071970;28;20099;-65
2023/03/08 23:52:41;;;;;;;18.00;9.63;;;;;;;;;;10070814;28;20054;-66
2023/03/08 23:57:35;;;;;;;19.42;9.20;;;;;;;;;;10071554;28;20053;-65
